createdAt,value
2018-06-01T00:02:10.097Z,91.60
2018-06-01T00:07:01.642Z,91.70
2018-06-01T00:11:53.152Z,91.80
2018-06-01T00:16:44.678Z,91.40
2018-06-01T00:21:36.205Z,91.30
2018-06-01T00:26:27.732Z,91.30
2018-06-01T00:31:19.245Z,91.40
2018-06-01T00:36:10.780Z,91.50
2018-06-01T00:41:02.305Z,91.50
2018-06-01T00:45:54.585Z,91.50
2018-06-01T00:50:46.123Z,91.40
2018-06-01T00:55:37.644Z,91.30
2018-06-01T01:00:29.173Z,91.10
2018-06-01T01:05:20.727Z,91.20
2018-06-01T01:10:12.260Z,91.20
2018-06-01T01:15:03.810Z,91.40
2018-06-01T01:19:55.336Z,91.40
2018-06-01T01:24:46.875Z,91.30
2018-06-01T01:29:38.438Z,91.30
2018-06-01T01:34:29.954Z,91.40
2018-06-01T01:39:21.477Z,91.40
2018-06-01T01:44:12.979Z,91.50
2018-06-01T01:49:04.488Z,91.60
2018-06-01T01:53:56.735Z,92.00
2018-06-01T01:58:48.263Z,92.00
2018-06-01T02:03:39.764Z,92.50
2018-06-01T02:08:32.040Z,92.40
2018-06-01T02:13:23.604Z,92.60
2018-06-01T02:18:15.816Z,92.50
2018-06-01T02:23:07.348Z,92.40
2018-06-01T02:27:58.872Z,92.40
2018-06-01T02:32:50.414Z,92.40
2018-06-01T02:37:41.929Z,92.40
2018-06-01T02:42:33.470Z,92.50
2018-06-01T02:47:24.985Z,92.60
2018-06-01T02:52:16.505Z,92.80
2018-06-01T02:57:08.001Z,92.80
2018-06-01T03:01:59.542Z,93.20
2018-06-01T03:07:17.208Z,93.00
2018-06-01T03:12:09.457Z,92.80
2018-06-01T03:17:01.713Z,93.10
2018-06-01T03:21:53.973Z,93.00
2018-06-01T03:26:45.522Z,92.90
2018-06-01T03:31:37.019Z,93.70
2018-06-01T03:36:29.282Z,95.90
2018-06-01T03:41:21.542Z,96.00
2018-06-01T03:46:13.028Z,96.00
2018-06-01T03:51:05.543Z,99.00
2018-06-01T03:55:57.715Z,99.90
2018-06-01T04:00:49.584Z,99.90
2018-06-01T04:05:41.116Z,99.90
2018-06-01T04:10:32.606Z,99.90
2018-06-01T04:15:24.116Z,99.90
2018-06-01T04:20:17.267Z,99.90
2018-06-01T04:25:08.777Z,99.90
2018-06-01T04:30:00.266Z,99.90
2018-06-01T04:34:52.487Z,99.90
2018-06-01T04:39:43.989Z,99.90
2018-06-01T04:44:35.511Z,99.90
2018-06-01T04:49:27.020Z,99.90
2018-06-01T04:54:18.524Z,99.90
2018-06-01T04:59:11.493Z,99.90
2018-06-01T05:04:04.742Z,99.90
2018-06-01T05:08:56.283Z,99.90
2018-06-01T05:13:48.642Z,99.90
2018-06-01T05:18:40.162Z,99.90
2018-06-01T05:23:31.660Z,99.90
2018-06-01T05:28:23.142Z,99.90
2018-06-01T05:33:14.633Z,99.90
2018-06-01T05:38:06.155Z,99.90
2018-06-01T05:42:57.687Z,99.90
2018-06-01T05:47:49.219Z,99.90
2018-06-01T05:52:40.725Z,99.90
2018-06-01T05:57:32.220Z,99.90
2018-06-01T06:02:23.746Z,99.90
2018-06-01T06:07:15.274Z,99.90
2018-06-01T06:12:06.764Z,99.90
2018-06-01T06:16:59.019Z,99.90
2018-06-01T06:21:51.289Z,99.90
2018-06-01T06:26:42.814Z,99.90
2018-06-01T06:31:35.150Z,99.90
2018-06-01T06:36:26.704Z,99.90
2018-06-01T06:41:19.020Z,99.90
2018-06-01T06:46:10.556Z,99.90
2018-06-01T06:51:02.087Z,99.90
2018-06-01T06:55:53.621Z,98.30
2018-06-01T07:00:45.899Z,99.60
2018-06-01T07:05:38.154Z,99.50
2018-06-01T07:10:30.376Z,98.20
2018-06-01T07:15:21.907Z,98.10
2018-06-01T07:20:14.180Z,95.90
2018-06-01T07:25:06.432Z,93.80
2018-06-01T07:29:58.755Z,91.80
2018-06-01T07:34:50.254Z,91.80
2018-06-01T07:39:42.268Z,86.00
2018-06-01T07:44:34.510Z,83.30
2018-06-01T07:49:26.056Z,83.20
2018-06-01T07:54:18.307Z,83.80
2018-06-01T07:59:10.572Z,83.80
2018-06-01T08:04:02.817Z,82.50
2018-06-01T08:08:55.093Z,82.90
2018-06-01T08:13:46.583Z,82.80
2018-06-01T08:18:38.133Z,84.70
2018-06-01T08:23:30.406Z,84.00
2018-06-01T08:28:21.929Z,84.00
2018-06-01T08:33:13.435Z,84.50
2018-06-01T08:38:04.950Z,88.10
2018-06-01T08:42:56.449Z,87.00
2018-06-01T08:47:47.953Z,89.00
2018-06-01T08:52:40.253Z,90.80
2018-06-01T08:57:31.792Z,90.80
2018-06-01T09:02:23.337Z,91.30
2018-06-01T09:07:14.869Z,91.50
2018-06-01T09:12:06.400Z,92.40
2018-06-01T09:16:57.936Z,94.30
2018-06-01T09:21:49.464Z,94.20
2018-06-01T09:26:40.978Z,95.00
2018-06-01T09:31:32.470Z,95.20
2018-06-01T09:36:24.710Z,96.20
2018-06-01T09:41:16.206Z,96.20
2018-06-01T09:46:07.708Z,96.20
2018-06-01T09:50:59.232Z,95.90
2018-06-01T09:55:51.490Z,96.40
2018-06-01T10:00:49.227Z,96.30
2018-06-01T10:05:41.513Z,97.60
2018-06-01T10:10:35.701Z,95.60
2018-06-01T10:15:27.993Z,95.90
2018-06-01T10:20:19.501Z,95.90
2018-06-01T10:25:11.763Z,97.00
2018-06-01T10:30:03.332Z,96.90
2018-06-01T10:34:55.655Z,97.90
2018-06-01T10:39:47.163Z,98.10
2018-06-01T10:44:39.421Z,97.40
2018-06-01T10:49:31.722Z,98.10
2018-06-01T10:54:23.242Z,98.10
2018-06-01T10:59:14.771Z,99.20
2018-06-01T11:04:06.268Z,99.90
2018-06-01T11:08:58.565Z,99.90
2018-06-01T11:13:50.120Z,99.90
2018-06-01T11:18:41.607Z,99.90
2018-06-01T11:23:33.113Z,99.90
2018-06-01T11:28:25.367Z,99.90
2018-06-01T11:33:16.886Z,99.90
2018-06-01T11:38:09.194Z,99.90
2018-06-01T11:43:00.682Z,99.90
2018-06-01T11:47:52.185Z,99.90
2018-06-01T11:52:43.727Z,99.90
2018-06-01T11:57:35.258Z,99.90
2018-06-01T12:02:26.784Z,99.90
2018-06-01T12:07:18.304Z,99.90
2018-06-01T12:12:09.848Z,99.90
2018-06-01T12:17:01.353Z,99.90
2018-06-01T12:21:52.867Z,99.70
2018-06-01T12:26:45.125Z,98.90
2018-06-01T12:31:37.406Z,98.30
2018-06-01T12:36:28.897Z,98.20
2018-06-01T12:41:21.155Z,96.80
2018-06-01T12:46:13.405Z,97.30
2018-06-01T12:51:04.969Z,97.20
2018-06-01T12:55:57.372Z,97.90
2018-06-01T13:00:48.888Z,97.70
2018-06-01T13:05:40.471Z,97.30
2018-06-01T13:10:32.729Z,97.30
2018-06-01T13:15:25.019Z,98.00
2018-06-01T13:20:16.549Z,98.00
2018-06-01T13:25:08.058Z,97.60
2018-06-01T13:29:59.626Z,97.00
2018-06-01T13:34:51.150Z,97.60
2018-06-01T13:39:42.655Z,98.30
2018-06-01T13:44:34.159Z,98.50
2018-06-01T13:49:26.447Z,98.00
2018-06-01T13:54:17.972Z,98.00
2018-06-01T13:59:09.479Z,98.00
2018-06-01T14:04:01.738Z,98.20
2018-06-01T14:08:53.977Z,98.20
2018-06-01T14:13:45.479Z,98.20
2018-06-01T14:18:37.171Z,98.00
2018-06-01T14:23:29.452Z,98.40
2018-06-01T14:28:20.999Z,98.40
2018-06-01T14:33:12.541Z,98.60
2018-06-01T14:38:04.067Z,98.20
2018-06-01T14:42:55.549Z,98.60
2018-06-01T14:47:47.817Z,98.90
2018-06-01T14:52:40.080Z,99.40
2018-06-01T14:57:31.699Z,99.30
2018-06-01T15:02:23.940Z,99.40
2018-06-01T15:07:16.189Z,99.90
2018-06-01T15:12:08.451Z,99.80
2018-06-01T15:17:00.697Z,99.50
2018-06-01T15:21:52.939Z,99.50
2018-06-01T15:26:45.223Z,99.50
2018-06-01T15:31:36.758Z,99.40
2018-06-01T15:36:28.351Z,99.80
2018-06-01T15:41:19.879Z,99.90
2018-06-01T15:46:11.519Z,99.90
2018-06-01T15:51:03.770Z,99.90
2018-06-01T15:55:55.296Z,99.90
2018-06-01T16:00:46.826Z,99.90
2018-06-01T16:05:38.341Z,99.90
2018-06-01T16:10:29.810Z,99.90
2018-06-01T16:15:21.367Z,99.90
2018-06-01T16:20:13.623Z,99.90
2018-06-01T16:25:05.105Z,99.90
2018-06-01T16:29:56.583Z,99.00
2018-06-01T16:34:48.873Z,99.00
2018-06-01T16:39:40.413Z,99.00
2018-06-01T16:44:31.900Z,99.00
2018-06-01T16:49:24.160Z,98.70
2018-06-01T16:54:15.673Z,98.70
2018-06-01T16:59:07.944Z,98.70
2018-06-01T17:04:00.218Z,98.60
2018-06-01T17:08:51.724Z,98.60
2018-06-01T17:13:43.964Z,99.00
2018-06-01T17:18:36.222Z,98.90
2018-06-01T17:23:28.526Z,99.50
2018-06-01T17:28:20.035Z,99.50
2018-06-01T17:33:11.599Z,99.90
2018-06-01T17:38:03.175Z,99.90
2018-06-01T17:42:55.497Z,99.90
2018-06-01T17:47:46.998Z,99.90
2018-06-01T17:52:38.499Z,99.90
2018-06-01T17:57:30.756Z,99.90
2018-06-01T18:02:23.027Z,99.90
2018-06-01T18:07:14.526Z,99.90
2018-06-01T18:12:06.758Z,99.90
2018-06-01T18:16:58.315Z,99.90
2018-06-01T18:21:50.565Z,99.90
2018-06-01T18:26:42.830Z,99.90
2018-06-01T18:31:35.061Z,99.90
2018-06-01T18:36:26.588Z,99.90
2018-06-01T18:41:18.092Z,99.90
2018-06-01T18:46:09.606Z,99.90
2018-06-01T18:51:01.157Z,99.90
2018-06-01T18:55:52.672Z,99.90
2018-06-01T19:00:44.193Z,99.90
2018-06-01T19:05:35.738Z,99.90
2018-06-01T19:10:27.257Z,99.90
2018-06-01T19:15:18.764Z,99.90
2018-06-01T19:20:10.283Z,99.90
2018-06-01T19:25:01.797Z,99.90
2018-06-01T19:29:53.326Z,99.90
2018-06-01T19:34:44.823Z,99.90
2018-06-01T19:39:37.186Z,99.90
2018-06-01T19:44:28.725Z,99.90
2018-06-01T19:49:20.259Z,99.90
2018-06-01T19:54:11.867Z,99.90
2018-06-01T19:59:04.978Z,99.90
2018-06-01T20:03:56.503Z,99.90
2018-06-01T20:08:48.041Z,99.90
2018-06-01T20:13:39.567Z,99.90
2018-06-01T20:18:31.083Z,99.90
2018-06-01T20:23:23.345Z,99.90
2018-06-01T20:28:14.966Z,99.90
2018-06-01T20:33:07.236Z,99.90
2018-06-01T20:37:58.740Z,99.90
2018-06-01T20:42:50.253Z,99.90
2018-06-01T20:47:41.783Z,99.90
2018-06-01T20:52:33.296Z,99.90
2018-06-01T20:57:24.833Z,99.90
2018-06-01T21:02:16.374Z,99.90
2018-06-01T21:07:07.881Z,99.90
2018-06-01T21:11:59.414Z,99.90
2018-06-01T21:16:50.936Z,99.90
2018-06-01T21:21:43.250Z,99.90
2018-06-01T21:26:34.873Z,99.90
2018-06-01T21:31:26.397Z,99.90
2018-06-01T21:36:17.905Z,99.90
2018-06-01T21:41:09.406Z,99.90
2018-06-01T21:46:01.658Z,99.90
2018-06-01T21:50:53.930Z,99.90
2018-06-01T21:55:45.503Z,99.90
2018-06-01T22:00:37.013Z,99.80
2018-06-01T22:05:28.515Z,99.40
2018-06-01T22:10:20.774Z,99.40
2018-06-01T22:15:13.024Z,99.60
2018-06-01T22:20:05.302Z,99.70
2018-06-01T22:24:56.772Z,99.70
2018-06-01T22:29:48.319Z,99.60
2018-06-01T22:34:40.586Z,99.90
2018-06-01T22:39:32.903Z,99.80
2018-06-01T22:44:24.446Z,99.80
2018-06-01T22:49:15.969Z,99.70
2018-06-01T22:54:07.479Z,99.70
2018-06-01T22:58:58.977Z,99.90
2018-06-01T23:03:51.223Z,99.90
2018-06-01T23:08:43.448Z,99.90
2018-06-01T23:13:34.971Z,99.90
2018-06-01T23:18:27.514Z,99.90
2018-06-01T23:23:19.022Z,99.90
2018-06-01T23:28:10.558Z,99.90
2018-06-01T23:33:02.074Z,99.90
2018-06-01T23:37:54.329Z,99.90
2018-06-01T23:42:46.561Z,99.90
2018-06-01T23:47:38.836Z,99.90
2018-06-01T23:52:31.052Z,99.90
2018-06-01T23:57:22.560Z,99.90
